sensor_id;sensor_type;location;lat;lon;timestamp;P1;durP1;ratioP1;P2;durP2;ratioP2
75930;SDS011;64609;47.052;15.462;2023-02-01T00:01:49;17.20;;;7.15;;
75930;SDS011;64609;47.052;15.462;2023-02-01T00:04:14;13.07;;;6.72;;
75930;SDS011;64609;47.052;15.462;2023-02-01T00:06:40;11.45;;;6.07;;
75930;SDS011;64609;47.052;15.462;2023-02-01T00:09:05;11.65;;;6.00;;
75930;SDS011;64609;47.052;15.462;2023-02-01T00:11:31;11.45;;;6.90;;
75930;SDS011;64609;47.052;15.462;2023-02-01T00:13:57;11.35;;;6.30;;
75930;SDS011;64609;47.052;15.462;2023-02-01T00:16:24;12.38;;;6.65;;
75930;SDS011;64609;47.052;15.462;2023-02-01T00:18:51;12.00;;;5.88;;
75930;SDS011;64609;47.052;15.462;2023-02-01T00:21:21;16.40;;;6.90;;
75930;SDS011;64609;47.052;15.462;2023-02-01T00:23:47;14.77;;;6.20;;
75930;SDS011;64609;47.052;15.462;2023-02-01T00:26:14;17.15;;;6.35;;
75930;SDS011;64609;47.052;15.462;2023-02-01T00:29:00;15.35;;;6.72;;
75930;SDS011;64609;47.052;15.462;2023-02-01T00:31:27;13.23;;;6.60;;
75930;SDS011;64609;47.052;15.462;2023-02-01T00:33:53;13.93;;;6.18;;
75930;SDS011;64609;47.052;15.462;2023-02-01T00:36:19;12.77;;;6.18;;
75930;SDS011;64609;47.052;15.462;2023-02-01T00:38:44;12.52;;;6.35;;
75930;SDS011;64609;47.052;15.462;2023-02-01T00:41:11;15.85;;;7.25;;
75930;SDS011;64609;47.052;15.462;2023-02-01T00:43:42;17.50;;;6.78;;
75930;SDS011;64609;47.052;15.462;2023-02-01T00:46:08;16.17;;;6.97;;
75930;SDS011;64609;47.052;15.462;2023-02-01T00:48:34;14.73;;;7.13;;
75930;SDS011;64609;47.052;15.462;2023-02-01T00:51:01;12.13;;;6.63;;
75930;SDS011;64609;47.052;15.462;2023-02-01T00:53:28;10.93;;;6.07;;
75930;SDS011;64609;47.052;15.462;2023-02-01T00:55:54;11.80;;;6.43;;
75930;SDS011;64609;47.052;15.462;2023-02-01T00:58:21;12.35;;;6.25;;
75930;SDS011;64609;47.052;15.462;2023-02-01T01:00:54;10.85;;;6.05;;
75930;SDS011;64609;47.052;15.462;2023-02-01T01:03:36;13.52;;;6.05;;
75930;SDS011;64609;47.052;15.462;2023-02-01T01:06:06;9.73;;;5.50;;
75930;SDS011;64609;47.052;15.462;2023-02-01T01:08:38;10.73;;;5.97;;
75930;SDS011;64609;47.052;15.462;2023-02-01T01:11:15;13.13;;;5.45;;
75930;SDS011;64609;47.052;15.462;2023-02-01T01:13:42;10.20;;;5.50;;
75930;SDS011;64609;47.052;15.462;2023-02-01T01:16:09;8.90;;;5.32;;
75930;SDS011;64609;47.052;15.462;2023-02-01T01:18:35;13.68;;;5.78;;
75930;SDS011;64609;47.052;15.462;2023-02-01T01:21:03;10.77;;;5.65;;
75930;SDS011;64609;47.052;15.462;2023-02-01T01:23:30;12.25;;;6.05;;
75930;SDS011;64609;47.052;15.462;2023-02-01T01:25:55;11.18;;;5.60;;
75930;SDS011;64609;47.052;15.462;2023-02-01T01:28:21;11.73;;;5.45;;
75930;SDS011;64609;47.052;15.462;2023-02-01T01:30:47;12.52;;;6.20;;
75930;SDS011;64609;47.052;15.462;2023-02-01T01:33:13;11.90;;;6.00;;
75930;SDS011;64609;47.052;15.462;2023-02-01T01:35:38;12.50;;;5.78;;
75930;SDS011;64609;47.052;15.462;2023-02-01T01:38:04;10.63;;;6.28;;
75930;SDS011;64609;47.052;15.462;2023-02-01T01:40:30;9.50;;;5.57;;
75930;SDS011;64609;47.052;15.462;2023-02-01T01:42:56;9.57;;;5.93;;
75930;SDS011;64609;47.052;15.462;2023-02-01T01:47:53;13.68;;;6.57;;
75930;SDS011;64609;47.052;15.462;2023-02-01T01:50:23;12.05;;;6.43;;
75930;SDS011;64609;47.052;15.462;2023-02-01T01:52:53;14.55;;;6.35;;
75930;SDS011;64609;47.052;15.462;2023-02-01T01:55:21;12.38;;;6.25;;
75930;SDS011;64609;47.052;15.462;2023-02-01T01:57:50;13.10;;;6.60;;
75930;SDS011;64609;47.052;15.462;2023-02-01T02:00:38;10.90;;;5.40;;
75930;SDS011;64609;47.052;15.462;2023-02-01T02:06:14;13.68;;;6.40;;
75930;SDS011;64609;47.052;15.462;2023-02-01T02:08:45;11.00;;;6.60;;
75930;SDS011;64609;47.052;15.462;2023-02-01T02:11:11;14.98;;;6.20;;
75930;SDS011;64609;47.052;15.462;2023-02-01T02:13:41;13.00;;;8.05;;
75930;SDS011;64609;47.052;15.462;2023-02-01T02:18:44;10.95;;;5.72;;
75930;SDS011;64609;47.052;15.462;2023-02-01T02:24:15;9.38;;;5.25;;
75930;SDS011;64609;47.052;15.462;2023-02-01T02:40:31;12.38;;;5.68;;
75930;SDS011;64609;47.052;15.462;2023-02-01T02:43:18;14.35;;;5.68;;
75930;SDS011;64609;47.052;15.462;2023-02-01T02:46:22;11.85;;;5.68;;
75930;SDS011;64609;47.052;15.462;2023-02-01T02:54:57;10.43;;;5.00;;
75930;SDS011;64609;47.052;15.462;2023-02-01T02:57:26;11.02;;;5.10;;
75930;SDS011;64609;47.052;15.462;2023-02-01T03:00:18;12.77;;;5.45;;
75930;SDS011;64609;47.052;15.462;2023-02-01T03:03:05;9.43;;;5.45;;
75930;SDS011;64609;47.052;15.462;2023-02-01T03:05:50;13.18;;;6.22;;
75930;SDS011;64609;47.052;15.462;2023-02-01T03:08:23;12.52;;;5.43;;
75930;SDS011;64609;47.052;15.462;2023-02-01T03:19:03;9.63;;;5.50;;
75930;SDS011;64609;47.052;15.462;2023-02-01T03:21:38;11.63;;;5.78;;
75930;SDS011;64609;47.052;15.462;2023-02-01T03:24:11;10.63;;;5.05;;
75930;SDS011;64609;47.052;15.462;2023-02-01T03:26:42;11.95;;;5.32;;
75930;SDS011;64609;47.052;15.462;2023-02-01T03:30:06;8.35;;;4.88;;
75930;SDS011;64609;47.052;15.462;2023-02-01T03:32:14;8.98;;;5.28;;
75930;SDS011;64609;47.052;15.462;2023-02-01T03:34:40;13.32;;;6.05;;
75930;SDS011;64609;47.052;15.462;2023-02-01T03:37:07;8.45;;;4.93;;
75930;SDS011;64609;47.052;15.462;2023-02-01T03:42:24;14.00;;;6.38;;
75930;SDS011;64609;47.052;15.462;2023-02-01T03:45:11;12.35;;;6.53;;
75930;SDS011;64609;47.052;15.462;2023-02-01T03:47:45;14.68;;;6.85;;
75930;SDS011;64609;47.052;15.462;2023-02-01T03:50:15;14.85;;;6.22;;
75930;SDS011;64609;47.052;15.462;2023-02-01T03:52:45;11.83;;;5.90;;
75930;SDS011;64609;47.052;15.462;2023-02-01T03:55:23;11.27;;;6.38;;
75930;SDS011;64609;47.052;15.462;2023-02-01T04:00:36;12.48;;;6.18;;
75930;SDS011;64609;47.052;15.462;2023-02-01T04:03:02;15.65;;;6.53;;
75930;SDS011;64609;47.052;15.462;2023-02-01T04:05:29;10.98;;;5.88;;
75930;SDS011;64609;47.052;15.462;2023-02-01T04:07:55;10.48;;;5.65;;
75930;SDS011;64609;47.052;15.462;2023-02-01T04:10:21;13.27;;;6.10;;
75930;SDS011;64609;47.052;15.462;2023-02-01T04:12:47;13.25;;;6.43;;
75930;SDS011;64609;47.052;15.462;2023-02-01T04:15:12;12.68;;;6.82;;
75930;SDS011;64609;47.052;15.462;2023-02-01T04:17:38;14.73;;;7.03;;
75930;SDS011;64609;47.052;15.462;2023-02-01T04:20:04;11.77;;;6.18;;
75930;SDS011;64609;47.052;15.462;2023-02-01T04:22:30;16.25;;;6.47;;
75930;SDS011;64609;47.052;15.462;2023-02-01T04:24:55;14.10;;;7.25;;
75930;SDS011;64609;47.052;15.462;2023-02-01T04:27:21;13.30;;;7.07;;
75930;SDS011;64609;47.052;15.462;2023-02-01T04:29:46;18.77;;;6.78;;
75930;SDS011;64609;47.052;15.462;2023-02-01T04:32:14;14.00;;;7.22;;
75930;SDS011;64609;47.052;15.462;2023-02-01T04:34:40;12.05;;;6.57;;
75930;SDS011;64609;47.052;15.462;2023-02-01T04:37:06;14.50;;;6.38;;
75930;SDS011;64609;47.052;15.462;2023-02-01T04:39:32;11.90;;;6.55;;
75930;SDS011;64609;47.052;15.462;2023-02-01T04:41:58;13.25;;;6.90;;
75930;SDS011;64609;47.052;15.462;2023-02-01T04:44:23;16.83;;;7.32;;
75930;SDS011;64609;47.052;15.462;2023-02-01T04:46:49;14.85;;;7.38;;
75930;SDS011;64609;47.052;15.462;2023-02-01T04:49:15;15.32;;;7.47;;
75930;SDS011;64609;47.052;15.462;2023-02-01T04:51:41;13.38;;;6.90;;
75930;SDS011;64609;47.052;15.462;2023-02-01T04:54:07;14.30;;;7.88;;
75930;SDS011;64609;47.052;15.462;2023-02-01T04:56:33;15.15;;;8.05;;
75930;SDS011;64609;47.052;15.462;2023-02-01T04:59:03;14.40;;;7.70;;
75930;SDS011;64609;47.052;15.462;2023-02-01T05:01:29;19.23;;;8.45;;
75930;SDS011;64609;47.052;15.462;2023-02-01T05:03:55;16.35;;;8.18;;
75930;SDS011;64609;47.052;15.462;2023-02-01T05:06:21;17.98;;;7.93;;
75930;SDS011;64609;47.052;15.462;2023-02-01T05:08:47;19.10;;;8.40;;
75930;SDS011;64609;47.052;15.462;2023-02-01T05:11:12;17.98;;;8.30;;
75930;SDS011;64609;47.052;15.462;2023-02-01T05:13:57;17.10;;;8.05;;
75930;SDS011;64609;47.052;15.462;2023-02-01T05:16:24;12.25;;;7.70;;
75930;SDS011;64609;47.052;15.462;2023-02-01T05:18:49;17.60;;;8.23;;
75930;SDS011;64609;47.052;15.462;2023-02-01T05:21:15;15.02;;;8.82;;
75930;SDS011;64609;47.052;15.462;2023-02-01T05:23:41;19.52;;;8.75;;
75930;SDS011;64609;47.052;15.462;2023-02-01T05:26:25;20.63;;;8.95;;
75930;SDS011;64609;47.052;15.462;2023-02-01T05:28:51;18.13;;;9.07;;
75930;SDS011;64609;47.052;15.462;2023-02-01T05:31:17;19.95;;;8.73;;
75930;SDS011;64609;47.052;15.462;2023-02-01T05:33:43;14.52;;;8.68;;
75930;SDS011;64609;47.052;15.462;2023-02-01T05:36:08;21.13;;;9.93;;
75930;SDS011;64609;47.052;15.462;2023-02-01T05:38:34;20.25;;;9.73;;
75930;SDS011;64609;47.052;15.462;2023-02-01T05:40:59;23.90;;;12.40;;
75930;SDS011;64609;47.052;15.462;2023-02-01T05:43:25;18.48;;;10.27;;
75930;SDS011;64609;47.052;15.462;2023-02-01T05:45:51;15.50;;;9.20;;
75930;SDS011;64609;47.052;15.462;2023-02-01T05:48:17;18.17;;;9.73;;
75930;SDS011;64609;47.052;15.462;2023-02-01T05:50:43;23.02;;;9.77;;
75930;SDS011;64609;47.052;15.462;2023-02-01T05:53:09;17.52;;;8.95;;
75930;SDS011;64609;47.052;15.462;2023-02-01T05:55:36;15.90;;;8.93;;
75930;SDS011;64609;47.052;15.462;2023-02-01T05:58:02;17.10;;;8.02;;
75930;SDS011;64609;47.052;15.462;2023-02-01T06:00:28;14.85;;;7.97;;
75930;SDS011;64609;47.052;15.462;2023-02-01T06:02:53;13.82;;;8.07;;
75930;SDS011;64609;47.052;15.462;2023-02-01T06:05:19;18.75;;;7.65;;
75930;SDS011;64609;47.052;15.462;2023-02-01T06:07:45;13.65;;;6.45;;
75930;SDS011;64609;47.052;15.462;2023-02-01T06:10:11;21.45;;;10.38;;
75930;SDS011;64609;47.052;15.462;2023-02-01T06:12:38;16.90;;;9.25;;
75930;SDS011;64609;47.052;15.462;2023-02-01T06:15:03;16.77;;;7.55;;
75930;SDS011;64609;47.052;15.462;2023-02-01T06:17:30;14.55;;;7.53;;
75930;SDS011;64609;47.052;15.462;2023-02-01T06:19:56;15.45;;;7.68;;
75930;SDS011;64609;47.052;15.462;2023-02-01T06:22:21;13.90;;;7.10;;
75930;SDS011;64609;47.052;15.462;2023-02-01T06:24:47;17.38;;;8.77;;
75930;SDS011;64609;47.052;15.462;2023-02-01T06:27:13;16.90;;;7.53;;
75930;SDS011;64609;47.052;15.462;2023-02-01T06:29:39;13.52;;;8.10;;
75930;SDS011;64609;47.052;15.462;2023-02-01T06:32:05;16.42;;;8.55;;
75930;SDS011;64609;47.052;15.462;2023-02-01T06:34:31;16.10;;;8.45;;
75930;SDS011;64609;47.052;15.462;2023-02-01T06:36:57;16.80;;;7.50;;
75930;SDS011;64609;47.052;15.462;2023-02-01T06:39:23;18.48;;;7.00;;
75930;SDS011;64609;47.052;15.462;2023-02-01T06:41:48;12.80;;;6.93;;
75930;SDS011;64609;47.052;15.462;2023-02-01T06:44:15;16.05;;;7.43;;
75930;SDS011;64609;47.052;15.462;2023-02-01T06:46:41;16.30;;;6.60;;
75930;SDS011;64609;47.052;15.462;2023-02-01T06:49:07;13.38;;;6.65;;
75930;SDS011;64609;47.052;15.462;2023-02-01T06:51:33;13.20;;;6.75;;
75930;SDS011;64609;47.052;15.462;2023-02-01T06:53:59;12.13;;;6.72;;
75930;SDS011;64609;47.052;15.462;2023-02-01T06:56:25;13.00;;;6.38;;
75930;SDS011;64609;47.052;15.462;2023-02-01T06:58:51;13.48;;;6.53;;
75930;SDS011;64609;47.052;15.462;2023-02-01T07:01:17;11.57;;;5.90;;
75930;SDS011;64609;47.052;15.462;2023-02-01T07:03:43;16.75;;;6.55;;
75930;SDS011;64609;47.052;15.462;2023-02-01T07:06:12;12.88;;;6.55;;
75930;SDS011;64609;47.052;15.462;2023-02-01T07:08:38;13.32;;;6.82;;
75930;SDS011;64609;47.052;15.462;2023-02-01T07:11:04;14.80;;;6.10;;
75930;SDS011;64609;47.052;15.462;2023-02-01T07:13:31;12.55;;;6.65;;
75930;SDS011;64609;47.052;15.462;2023-02-01T07:15:57;18.70;;;7.68;;
75930;SDS011;64609;47.052;15.462;2023-02-01T07:18:27;15.15;;;7.40;;
75930;SDS011;64609;47.052;15.462;2023-02-01T07:20:54;14.85;;;7.70;;
75930;SDS011;64609;47.052;15.462;2023-02-01T07:23:20;12.75;;;6.90;;
75930;SDS011;64609;47.052;15.462;2023-02-01T07:25:46;13.15;;;7.22;;
75930;SDS011;64609;47.052;15.462;2023-02-01T07:28:12;23.45;;;7.35;;
75930;SDS011;64609;47.052;15.462;2023-02-01T07:30:38;16.70;;;7.90;;
75930;SDS011;64609;47.052;15.462;2023-02-01T07:33:03;18.75;;;6.93;;
75930;SDS011;64609;47.052;15.462;2023-02-01T07:35:29;27.00;;;7.30;;
75930;SDS011;64609;47.052;15.462;2023-02-01T07:37:57;18.80;;;8.30;;
75930;SDS011;64609;47.052;15.462;2023-02-01T07:40:22;15.10;;;7.25;;
75930;SDS011;64609;47.052;15.462;2023-02-01T07:45:19;13.48;;;8.48;;
75930;SDS011;64609;47.052;15.462;2023-02-01T07:47:45;19.58;;;8.60;;
75930;SDS011;64609;47.052;15.462;2023-02-01T07:50:11;24.73;;;8.88;;
75930;SDS011;64609;47.052;15.462;2023-02-01T07:52:36;18.92;;;7.28;;
75930;SDS011;64609;47.052;15.462;2023-02-01T07:55:02;16.70;;;8.10;;
75930;SDS011;64609;47.052;15.462;2023-02-01T07:57:27;16.70;;;7.55;;
75930;SDS011;64609;47.052;15.462;2023-02-01T07:59:53;19.45;;;7.55;;
75930;SDS011;64609;47.052;15.462;2023-02-01T08:02:37;13.32;;;6.90;;
75930;SDS011;64609;47.052;15.462;2023-02-01T08:05:03;16.33;;;6.18;;
75930;SDS011;64609;47.052;15.462;2023-02-01T08:07:30;17.83;;;6.05;;
75930;SDS011;64609;47.052;15.462;2023-02-01T08:09:56;15.98;;;5.80;;
75930;SDS011;64609;47.052;15.462;2023-02-01T08:12:21;9.77;;;5.78;;
75930;SDS011;64609;47.052;15.462;2023-02-01T08:14:47;13.25;;;5.15;;
75930;SDS011;64609;47.052;15.462;2023-02-01T08:17:12;11.30;;;5.65;;
75930;SDS011;64609;47.052;15.462;2023-02-01T08:19:38;11.60;;;6.10;;
75930;SDS011;64609;47.052;15.462;2023-02-01T08:22:04;17.80;;;6.15;;
75930;SDS011;64609;47.052;15.462;2023-02-01T08:24:32;14.68;;;5.80;;
75930;SDS011;64609;47.052;15.462;2023-02-01T08:26:58;17.63;;;6.18;;
75930;SDS011;64609;47.052;15.462;2023-02-01T08:29:26;11.95;;;5.10;;
75930;SDS011;64609;47.052;15.462;2023-02-01T08:31:52;10.73;;;4.70;;
75930;SDS011;64609;47.052;15.462;2023-02-01T08:34:19;8.13;;;4.90;;
75930;SDS011;64609;47.052;15.462;2023-02-01T08:36:44;17.95;;;5.53;;
75930;SDS011;64609;47.052;15.462;2023-02-01T08:39:10;15.88;;;5.38;;
75930;SDS011;64609;47.052;15.462;2023-02-01T08:41:36;15.20;;;5.35;;
75930;SDS011;64609;47.052;15.462;2023-02-01T08:44:02;23.38;;;5.05;;
75930;SDS011;64609;47.052;15.462;2023-02-01T08:46:28;12.88;;;5.40;;
75930;SDS011;64609;47.052;15.462;2023-02-01T08:48:54;14.88;;;4.55;;
75930;SDS011;64609;47.052;15.462;2023-02-01T08:51:21;20.70;;;5.70;;
75930;SDS011;64609;47.052;15.462;2023-02-01T08:53:48;12.40;;;4.93;;
75930;SDS011;64609;47.052;15.462;2023-02-01T08:56:15;17.55;;;4.68;;
75930;SDS011;64609;47.052;15.462;2023-02-01T08:58:41;10.98;;;4.95;;
75930;SDS011;64609;47.052;15.462;2023-02-01T09:01:11;14.35;;;5.15;;
75930;SDS011;64609;47.052;15.462;2023-02-01T09:03:38;11.77;;;5.10;;
75930;SDS011;64609;47.052;15.462;2023-02-01T09:06:06;10.77;;;5.63;;
75930;SDS011;64609;47.052;15.462;2023-02-01T09:08:34;24.35;;;5.95;;
75930;SDS011;64609;47.052;15.462;2023-02-01T09:11:01;21.38;;;7.07;;
75930;SDS011;64609;47.052;15.462;2023-02-01T09:13:27;13.43;;;5.60;;
75930;SDS011;64609;47.052;15.462;2023-02-01T09:15:53;14.82;;;5.90;;
75930;SDS011;64609;47.052;15.462;2023-02-01T09:18:19;20.67;;;8.25;;
75930;SDS011;64609;47.052;15.462;2023-02-01T09:20:45;21.17;;;7.63;;
75930;SDS011;64609;47.052;15.462;2023-02-01T09:23:11;18.50;;;6.65;;
75930;SDS011;64609;47.052;15.462;2023-02-01T09:25:37;28.33;;;6.20;;
75930;SDS011;64609;47.052;15.462;2023-02-01T09:28:03;24.55;;;6.63;;
75930;SDS011;64609;47.052;15.462;2023-02-01T09:30:31;22.33;;;6.63;;
75930;SDS011;64609;47.052;15.462;2023-02-01T09:32:57;17.08;;;6.53;;
75930;SDS011;64609;47.052;15.462;2023-02-01T09:35:23;19.55;;;6.07;;
75930;SDS011;64609;47.052;15.462;2023-02-01T09:37:48;25.15;;;6.35;;
75930;SDS011;64609;47.052;15.462;2023-02-01T09:40:15;21.08;;;6.20;;
75930;SDS011;64609;47.052;15.462;2023-02-01T09:48:24;28.17;;;6.00;;
75930;SDS011;64609;47.052;15.462;2023-02-01T09:50:54;18.92;;;5.85;;
75930;SDS011;64609;47.052;15.462;2023-02-01T09:56:04;22.80;;;6.75;;
75930;SDS011;64609;47.052;15.462;2023-02-01T09:58:35;15.65;;;6.30;;
75930;SDS011;64609;47.052;15.462;2023-02-01T10:01:03;15.00;;;5.60;;
75930;SDS011;64609;47.052;15.462;2023-02-01T10:03:36;20.90;;;6.35;;
75930;SDS011;64609;47.052;15.462;2023-02-01T10:22:10;11.63;;;4.80;;
75930;SDS011;64609;47.052;15.462;2023-02-01T10:25:22;8.88;;;4.13;;
75930;SDS011;64609;47.052;15.462;2023-02-01T10:27:56;15.25;;;5.05;;
75930;SDS011;64609;47.052;15.462;2023-02-01T10:30:27;10.55;;;4.10;;
75930;SDS011;64609;47.052;15.462;2023-02-01T10:33:07;7.68;;;4.05;;
75930;SDS011;64609;47.052;15.462;2023-02-01T10:35:38;9.23;;;4.03;;
75930;SDS011;64609;47.052;15.462;2023-02-01T10:38:07;14.77;;;4.20;;
75930;SDS011;64609;47.052;15.462;2023-02-01T10:40:45;12.07;;;4.15;;
75930;SDS011;64609;47.052;15.462;2023-02-01T10:43:11;11.00;;;3.28;;
75930;SDS011;64609;47.052;15.462;2023-02-01T10:45:37;7.60;;;2.70;;
75930;SDS011;64609;47.052;15.462;2023-02-01T10:48:04;7.20;;;2.78;;
75930;SDS011;64609;47.052;15.462;2023-02-01T10:50:35;7.03;;;3.28;;
75930;SDS011;64609;47.052;15.462;2023-02-01T10:55:54;8.48;;;2.88;;
75930;SDS011;64609;47.052;15.462;2023-02-01T11:00:54;10.95;;;3.80;;
75930;SDS011;64609;47.052;15.462;2023-02-01T11:05:57;18.45;;;6.32;;
75930;SDS011;64609;47.052;15.462;2023-02-01T11:08:23;12.30;;;5.00;;
75930;SDS011;64609;47.052;15.462;2023-02-01T11:10:56;14.20;;;4.68;;
75930;SDS011;64609;47.052;15.462;2023-02-01T11:13:27;10.52;;;4.90;;
75930;SDS011;64609;47.052;15.462;2023-02-01T11:16:01;12.07;;;4.65;;
75930;SDS011;64609;47.052;15.462;2023-02-01T11:18:29;7.95;;;3.58;;
75930;SDS011;64609;47.052;15.462;2023-02-01T11:20:56;14.10;;;4.50;;
75930;SDS011;64609;47.052;15.462;2023-02-01T11:23:24;10.93;;;4.00;;
75930;SDS011;64609;47.052;15.462;2023-02-01T11:25:58;5.38;;;2.55;;
75930;SDS011;64609;47.052;15.462;2023-02-01T11:28:30;6.00;;;3.22;;
75930;SDS011;64609;47.052;15.462;2023-02-01T11:30:59;8.68;;;2.95;;
75930;SDS011;64609;47.052;15.462;2023-02-01T11:33:29;20.03;;;3.83;;
75930;SDS011;64609;47.052;15.462;2023-02-01T11:36:00;10.73;;;3.97;;
75930;SDS011;64609;47.052;15.462;2023-02-01T11:38:32;12.75;;;4.00;;
75930;SDS011;64609;47.052;15.462;2023-02-01T11:41:17;11.88;;;3.30;;
75930;SDS011;64609;47.052;15.462;2023-02-01T11:46:31;9.05;;;3.35;;
75930;SDS011;64609;47.052;15.462;2023-02-01T12:05:22;3.50;;;1.25;;
75930;SDS011;64609;47.052;15.462;2023-02-01T12:10:46;3.92;;;0.77;;
75930;SDS011;64609;47.052;15.462;2023-02-01T12:16:19;15.63;;;1.88;;
75930;SDS011;64609;47.052;15.462;2023-02-01T12:21:57;3.50;;;0.63;;
75930;SDS011;64609;47.052;15.462;2023-02-01T12:33:11;1.40;;;0.50;;
75930;SDS011;64609;47.052;15.462;2023-02-01T12:36:06;0.43;;;0.40;;
75930;SDS011;64609;47.052;15.462;2023-02-01T12:41:26;6.10;;;0.70;;
75930;SDS011;64609;47.052;15.462;2023-02-01T12:44:02;2.83;;;0.60;;
75930;SDS011;64609;47.052;15.462;2023-02-01T12:46:44;1.55;;;0.57;;
75930;SDS011;64609;47.052;15.462;2023-02-01T12:49:17;8.30;;;0.90;;
75930;SDS011;64609;47.052;15.462;2023-02-01T12:51:55;1.83;;;0.57;;
75930;SDS011;64609;47.052;15.462;2023-02-01T12:57:12;2.47;;;0.60;;
75930;SDS011;64609;47.052;15.462;2023-02-01T12:59:46;4.50;;;0.70;;
75930;SDS011;64609;47.052;15.462;2023-02-01T13:02:22;3.13;;;0.77;;
75930;SDS011;64609;47.052;15.462;2023-02-01T13:08:02;3.83;;;0.70;;
75930;SDS011;64609;47.052;15.462;2023-02-01T13:13:14;2.47;;;0.68;;
75930;SDS011;64609;47.052;15.462;2023-02-01T13:15:44;1.23;;;0.55;;
75930;SDS011;64609;47.052;15.462;2023-02-01T13:18:17;2.42;;;0.77;;
75930;SDS011;64609;47.052;15.462;2023-02-01T13:21:04;3.53;;;1.00;;
75930;SDS011;64609;47.052;15.462;2023-02-01T13:23:38;1.50;;;0.82;;
75930;SDS011;64609;47.052;15.462;2023-02-01T13:26:05;3.92;;;1.20;;
75930;SDS011;64609;47.052;15.462;2023-02-01T13:28:39;2.35;;;1.10;;
75930;SDS011;64609;47.052;15.462;2023-02-01T13:34:25;0.60;;;0.60;;
75930;SDS011;64609;47.052;15.462;2023-02-01T13:39:50;6.55;;;0.75;;
75930;SDS011;64609;47.052;15.462;2023-02-01T13:42:35;2.63;;;0.90;;
75930;SDS011;64609;47.052;15.462;2023-02-01T13:45:23;1.35;;;0.68;;
75930;SDS011;64609;47.052;15.462;2023-02-01T13:47:51;3.55;;;0.60;;
75930;SDS011;64609;47.052;15.462;2023-02-01T13:50:38;1.58;;;0.60;;
75930;SDS011;64609;47.052;15.462;2023-02-01T13:58:19;1.52;;;0.70;;
75930;SDS011;64609;47.052;15.462;2023-02-01T14:00:48;1.80;;;0.80;;
75930;SDS011;64609;47.052;15.462;2023-02-01T14:03:22;5.82;;;0.68;;
75930;SDS011;64609;47.052;15.462;2023-02-01T14:19:23;3.10;;;0.65;;
75930;SDS011;64609;47.052;15.462;2023-02-01T14:21:55;0.77;;;0.50;;
75930;SDS011;64609;47.052;15.462;2023-02-01T14:26:51;1.10;;;0.60;;
75930;SDS011;64609;47.052;15.462;2023-02-01T14:29:53;0.88;;;0.70;;
75930;SDS011;64609;47.052;15.462;2023-02-01T14:32:23;1.60;;;0.80;;
75930;SDS011;64609;47.052;15.462;2023-02-01T14:34:53;0.57;;;0.57;;
75930;SDS011;64609;47.052;15.462;2023-02-01T14:42:43;4.18;;;0.77;;
75930;SDS011;64609;47.052;15.462;2023-02-01T14:47:48;1.00;;;0.70;;
75930;SDS011;64609;47.052;15.462;2023-02-01T15:00:55;1.17;;;0.70;;
75930;SDS011;64609;47.052;15.462;2023-02-01T15:06:20;3.72;;;0.90;;
75930;SDS011;64609;47.052;15.462;2023-02-01T15:09:08;10.43;;;4.60;;
75930;SDS011;64609;47.052;15.462;2023-02-01T15:14:38;20.93;;;7.80;;
75930;SDS011;64609;47.052;15.462;2023-02-01T15:17:23;17.23;;;7.30;;
75930;SDS011;64609;47.052;15.462;2023-02-01T15:22:20;5.47;;;2.53;;
75930;SDS011;64609;47.052;15.462;2023-02-01T15:24:51;4.85;;;2.47;;
75930;SDS011;64609;47.052;15.462;2023-02-01T15:27:18;2.13;;;1.27;;
75930;SDS011;64609;47.052;15.462;2023-02-01T15:29:44;3.35;;;1.00;;
75930;SDS011;64609;47.052;15.462;2023-02-01T15:32:27;1.38;;;0.85;;
75930;SDS011;64609;47.052;15.462;2023-02-01T15:35:03;4.10;;;1.35;;
75930;SDS011;64609;47.052;15.462;2023-02-01T15:37:29;2.22;;;1.40;;
75930;SDS011;64609;47.052;15.462;2023-02-01T15:45:17;5.22;;;1.10;;
75930;SDS011;64609;47.052;15.462;2023-02-01T15:47:51;2.67;;;1.25;;
75930;SDS011;64609;47.052;15.462;2023-02-01T15:50:19;2.53;;;1.10;;
75930;SDS011;64609;47.052;15.462;2023-02-01T15:52:49;2.08;;;1.15;;
75930;SDS011;64609;47.052;15.462;2023-02-01T15:57:42;1.52;;;1.10;;
75930;SDS011;64609;47.052;15.462;2023-02-01T16:00:18;3.15;;;1.25;;
75930;SDS011;64609;47.052;15.462;2023-02-01T16:02:54;2.17;;;1.17;;
75930;SDS011;64609;47.052;15.462;2023-02-01T16:05:32;2.95;;;1.23;;
75930;SDS011;64609;47.052;15.462;2023-02-01T16:08:03;4.28;;;1.10;;
75930;SDS011;64609;47.052;15.462;2023-02-01T16:10:44;2.42;;;1.30;;
75930;SDS011;64609;47.052;15.462;2023-02-01T16:13:12;6.13;;;1.48;;
75930;SDS011;64609;47.052;15.462;2023-02-01T16:15:39;2.70;;;1.05;;
75930;SDS011;64609;47.052;15.462;2023-02-01T16:18:05;2.92;;;1.10;;
75930;SDS011;64609;47.052;15.462;2023-02-01T16:20:33;4.32;;;1.52;;
75930;SDS011;64609;47.052;15.462;2023-02-01T16:23:00;10.05;;;3.08;;
75930;SDS011;64609;47.052;15.462;2023-02-01T16:25:26;6.20;;;2.38;;
75930;SDS011;64609;47.052;15.462;2023-02-01T16:27:52;4.63;;;1.70;;
75930;SDS011;64609;47.052;15.462;2023-02-01T16:30:18;5.63;;;2.10;;
75930;SDS011;64609;47.052;15.462;2023-02-01T16:32:48;2.97;;;1.60;;
75930;SDS011;64609;47.052;15.462;2023-02-01T16:35:16;4.60;;;1.80;;
75930;SDS011;64609;47.052;15.462;2023-02-01T16:37:49;4.38;;;2.03;;
75930;SDS011;64609;47.052;15.462;2023-02-01T16:40:16;4.25;;;1.88;;
75930;SDS011;64609;47.052;15.462;2023-02-01T16:42:44;3.72;;;1.90;;
75930;SDS011;64609;47.052;15.462;2023-02-01T16:45:11;11.68;;;2.83;;
75930;SDS011;64609;47.052;15.462;2023-02-01T16:47:37;11.23;;;2.90;;
75930;SDS011;64609;47.052;15.462;2023-02-01T16:50:09;5.15;;;1.98;;
75930;SDS011;64609;47.052;15.462;2023-02-01T16:52:41;5.93;;;1.75;;
75930;SDS011;64609;47.052;15.462;2023-02-01T16:55:17;2.03;;;1.30;;
75930;SDS011;64609;47.052;15.462;2023-02-01T16:57:46;2.35;;;1.42;;
75930;SDS011;64609;47.052;15.462;2023-02-01T17:00:12;5.68;;;1.67;;
75930;SDS011;64609;47.052;15.462;2023-02-01T17:02:40;2.83;;;1.75;;
75930;SDS011;64609;47.052;15.462;2023-02-01T17:05:07;5.53;;;1.67;;
75930;SDS011;64609;47.052;15.462;2023-02-01T17:07:34;5.85;;;1.77;;
75930;SDS011;64609;47.052;15.462;2023-02-01T17:10:00;4.28;;;1.60;;
75930;SDS011;64609;47.052;15.462;2023-02-01T17:12:28;5.05;;;1.70;;
75930;SDS011;64609;47.052;15.462;2023-02-01T17:14:55;5.43;;;1.90;;
75930;SDS011;64609;47.052;15.462;2023-02-01T17:17:22;3.15;;;1.65;;
75930;SDS011;64609;47.052;15.462;2023-02-01T17:19:50;5.20;;;1.80;;
75930;SDS011;64609;47.052;15.462;2023-02-01T17:22:17;6.70;;;2.90;;
75930;SDS011;64609;47.052;15.462;2023-02-01T17:24:43;10.48;;;4.25;;
75930;SDS011;64609;47.052;15.462;2023-02-01T17:27:08;21.30;;;4.38;;
75930;SDS011;64609;47.052;15.462;2023-02-01T17:29:34;6.35;;;2.80;;
75930;SDS011;64609;47.052;15.462;2023-02-01T17:31:59;9.10;;;2.50;;
75930;SDS011;64609;47.052;15.462;2023-02-01T17:34:25;7.00;;;2.25;;
75930;SDS011;64609;47.052;15.462;2023-02-01T17:36:51;3.60;;;1.90;;
75930;SDS011;64609;47.052;15.462;2023-02-01T17:39:17;6.05;;;2.30;;
75930;SDS011;64609;47.052;15.462;2023-02-01T17:42:03;5.15;;;3.38;;
75930;SDS011;64609;47.052;15.462;2023-02-01T17:44:29;9.27;;;4.07;;
75930;SDS011;64609;47.052;15.462;2023-02-01T17:46:55;14.70;;;7.43;;
75930;SDS011;64609;47.052;15.462;2023-02-01T17:49:23;12.05;;;7.47;;